CheckWX is a tool to help pilots better visualize weather data.  It is not intended as a substitute for an official pre-flight weather briefing.

03:20:27 UTC

KJVW METAR
John Bell Williams Airport
Raymond, Mississippi, USA
Current

5 mins ago

KJVW 240315Z AUTO 00000KT 10SM CLR 11/11 A3016 RMK AO2
Observed
Mar-24 @ 03:15 UTC
Visibility
10 SM
Flight Rules
VFR
Cloud Levels
  • Clear skies
Temperature
11°C / 52°F
Dewpoint
11°C / 52°F
Humidity
100%
Altimeter
30.16" Hg
Pressure
1021.32 hPa
Previous

25 mins ago

KJVW 240255Z AUTO 10003KT 10SM CLR 12/11 A3016 RMK AO2
Observed
Mar-24 @ 02:55 UTC
Wind
  • 100° at 3 KTS
Visibility
10 SM
Flight Rules
VFR
Cloud Levels
  • Clear skies
Temperature
12°C / 54°F
Dewpoint
11°C / 52°F
Humidity
94%
Altimeter
30.16" Hg
Pressure
1021.32 hPa
Previous

45 mins ago

KJVW 240235Z AUTO 00000KT 10SM CLR 13/10 A3016 RMK AO2
Observed
Mar-24 @ 02:35 UTC
Visibility
10 SM
Flight Rules
VFR
Cloud Levels
  • Clear skies
Temperature
13°C / 55°F
Dewpoint
10°C / 50°F
Humidity
82%
Altimeter
30.16" Hg
Pressure
1021.32 hPa